Terminal Aerodrome Forecast
Issued by NWS

Home | Current Version | Previous Version | Text Only | Print | Product List | Glossary On
Versions: 1 2 3 4 5 6 7 8 9 10 11 12
000
FTUS45 KABQ 061133
TAFGUP
TAF
KGUP 061133Z 0612/0712 VRB05KT P6SM BKN150
     FM061800 28008KT P6SM FEW080
     FM062200 30009KT P6SM VCTS SCT080CB SCT150
     FM070100 26009KT P6SM VCSH SCT080 BKN150
     FM070400 VRB03KT P6SM FEW080 BKN150=

USA.gov is the U.S. government's official web portal to all federal, state and local government web resources and services.